sensor_id;sensor_type;location;lat;lon;timestamp;P1;durP1;ratioP1;P2;durP2;ratioP2
68432;SDS011;55412;51.350;17.056;2023-08-06T00:00:55;4.88;;;2.00;;
68432;SDS011;55412;51.350;17.056;2023-08-06T00:03:21;4.38;;;1.70;;
68432;SDS011;55412;51.350;17.056;2023-08-06T00:05:47;4.22;;;1.70;;
68432;SDS011;55412;51.350;17.056;2023-08-06T00:08:13;3.55;;;1.50;;
68432;SDS011;55412;51.350;17.056;2023-08-06T00:10:39;3.77;;;1.37;;
68432;SDS011;55412;51.350;17.056;2023-08-06T00:13:06;4.32;;;1.35;;
68432;SDS011;55412;51.350;17.056;2023-08-06T00:15:33;3.50;;;1.30;;
68432;SDS011;55412;51.350;17.056;2023-08-06T00:17:59;3.90;;;1.35;;
68432;SDS011;55412;51.350;17.056;2023-08-06T00:20:25;4.30;;;1.50;;
68432;SDS011;55412;51.350;17.056;2023-08-06T00:22:51;4.23;;;1.30;;
68432;SDS011;55412;51.350;17.056;2023-08-06T00:25:17;3.50;;;1.40;;
68432;SDS011;55412;51.350;17.056;2023-08-06T00:27:44;3.80;;;1.35;;
68432;SDS011;55412;51.350;17.056;2023-08-06T00:30:10;4.32;;;1.25;;
68432;SDS011;55412;51.350;17.056;2023-08-06T00:32:37;3.35;;;1.20;;
68432;SDS011;55412;51.350;17.056;2023-08-06T00:35:03;3.43;;;1.27;;
68432;SDS011;55412;51.350;17.056;2023-08-06T00:37:29;3.65;;;1.08;;
68432;SDS011;55412;51.350;17.056;2023-08-06T00:39:55;3.30;;;1.23;;
68432;SDS011;55412;51.350;17.056;2023-08-06T00:42:22;4.95;;;1.20;;
68432;SDS011;55412;51.350;17.056;2023-08-06T00:44:48;4.05;;;1.13;;
68432;SDS011;55412;51.350;17.056;2023-08-06T00:47:14;3.17;;;0.80;;
68432;SDS011;55412;51.350;17.056;2023-08-06T00:49:41;2.97;;;0.75;;
68432;SDS011;55412;51.350;17.056;2023-08-06T00:52:07;2.70;;;0.90;;
68432;SDS011;55412;51.350;17.056;2023-08-06T00:54:34;3.05;;;1.00;;
68432;SDS011;55412;51.350;17.056;2023-08-06T00:57:04;2.97;;;1.00;;
68432;SDS011;55412;51.350;17.056;2023-08-06T00:59:32;4.30;;;0.90;;
68432;SDS011;55412;51.350;17.056;2023-08-06T01:01:59;2.88;;;1.15;;
68432;SDS011;55412;51.350;17.056;2023-08-06T01:04:25;4.22;;;1.10;;
68432;SDS011;55412;51.350;17.056;2023-08-06T01:07:14;4.93;;;1.02;;
68432;SDS011;55412;51.350;17.056;2023-08-06T01:10:23;3.10;;;0.85;;
68432;SDS011;55412;51.350;17.056;2023-08-06T01:15:58;2.50;;;0.60;;
68432;SDS011;55412;51.350;17.056;2023-08-06T01:18:25;3.30;;;1.00;;
68432;SDS011;55412;51.350;17.056;2023-08-06T01:20:52;4.07;;;0.73;;
68432;SDS011;55412;51.350;17.056;2023-08-06T01:23:18;2.42;;;0.60;;
68432;SDS011;55412;51.350;17.056;2023-08-06T01:25:47;2.83;;;0.77;;
68432;SDS011;55412;51.350;17.056;2023-08-06T01:28:35;3.90;;;0.80;;
68432;SDS011;55412;51.350;17.056;2023-08-06T01:31:15;4.70;;;0.80;;
68432;SDS011;55412;51.350;17.056;2023-08-06T01:33:51;3.15;;;0.80;;
68432;SDS011;55412;51.350;17.056;2023-08-06T01:36:19;2.72;;;0.82;;
68432;SDS011;55412;51.350;17.056;2023-08-06T01:38:47;2.20;;;0.50;;
68432;SDS011;55412;51.350;17.056;2023-08-06T01:41:13;2.83;;;0.80;;
68432;SDS011;55412;51.350;17.056;2023-08-06T01:43:39;2.28;;;0.55;;
68432;SDS011;55412;51.350;17.056;2023-08-06T01:46:05;2.72;;;0.70;;
68432;SDS011;55412;51.350;17.056;2023-08-06T01:48:31;2.60;;;0.73;;
68432;SDS011;55412;51.350;17.056;2023-08-06T01:50:58;3.80;;;0.77;;
68432;SDS011;55412;51.350;17.056;2023-08-06T01:53:24;2.58;;;0.80;;
68432;SDS011;55412;51.350;17.056;2023-08-06T01:55:50;2.22;;;0.50;;
68432;SDS011;55412;51.350;17.056;2023-08-06T01:58:18;3.55;;;0.70;;
68432;SDS011;55412;51.350;17.056;2023-08-06T02:00:44;2.20;;;0.70;;
68432;SDS011;55412;51.350;17.056;2023-08-06T02:03:10;3.00;;;0.90;;
68432;SDS011;55412;51.350;17.056;2023-08-06T02:05:36;3.78;;;0.55;;
68432;SDS011;55412;51.350;17.056;2023-08-06T02:08:02;2.22;;;0.60;;
68432;SDS011;55412;51.350;17.056;2023-08-06T02:10:29;2.60;;;0.63;;
68432;SDS011;55412;51.350;17.056;2023-08-06T02:12:55;2.33;;;0.68;;
68432;SDS011;55412;51.350;17.056;2023-08-06T02:15:21;1.97;;;0.50;;
68432;SDS011;55412;51.350;17.056;2023-08-06T02:17:47;2.58;;;0.30;;
68432;SDS011;55412;51.350;17.056;2023-08-06T02:20:13;3.33;;;0.68;;
68432;SDS011;55412;51.350;17.056;2023-08-06T02:22:40;2.05;;;0.40;;
68432;SDS011;55412;51.350;17.056;2023-08-06T02:25:06;2.38;;;0.80;;
68432;SDS011;55412;51.350;17.056;2023-08-06T02:27:32;2.70;;;0.40;;
68432;SDS011;55412;51.350;17.056;2023-08-06T02:29:59;2.10;;;0.50;;
68432;SDS011;55412;51.350;17.056;2023-08-06T02:32:25;2.10;;;0.52;;
68432;SDS011;55412;51.350;17.056;2023-08-06T02:34:51;2.97;;;0.60;;
68432;SDS011;55412;51.350;17.056;2023-08-06T02:37:17;3.80;;;0.82;;
68432;SDS011;55412;51.350;17.056;2023-08-06T02:39:43;1.87;;;0.43;;
68432;SDS011;55412;51.350;17.056;2023-08-06T02:42:09;3.60;;;0.50;;
68432;SDS011;55412;51.350;17.056;2023-08-06T02:44:39;3.45;;;0.55;;
68432;SDS011;55412;51.350;17.056;2023-08-06T02:47:05;1.90;;;0.30;;
68432;SDS011;55412;51.350;17.056;2023-08-06T02:49:31;3.72;;;0.30;;
68432;SDS011;55412;51.350;17.056;2023-08-06T02:51:57;2.03;;;0.50;;
68432;SDS011;55412;51.350;17.056;2023-08-06T02:54:23;1.85;;;0.30;;
68432;SDS011;55412;51.350;17.056;2023-08-06T02:56:50;1.63;;;0.28;;
68432;SDS011;55412;51.350;17.056;2023-08-06T02:59:16;1.63;;;0.30;;
68432;SDS011;55412;51.350;17.056;2023-08-06T03:01:42;2.88;;;0.40;;
68432;SDS011;55412;51.350;17.056;2023-08-06T03:04:08;1.70;;;0.30;;
68432;SDS011;55412;51.350;17.056;2023-08-06T03:06:34;1.90;;;0.30;;
68432;SDS011;55412;51.350;17.056;2023-08-06T03:09:00;2.38;;;0.43;;
68432;SDS011;55412;51.350;17.056;2023-08-06T03:11:26;2.53;;;0.40;;
68432;SDS011;55412;51.350;17.056;2023-08-06T03:13:52;1.77;;;0.20;;
68432;SDS011;55412;51.350;17.056;2023-08-06T03:16:19;1.30;;;0.20;;
68432;SDS011;55412;51.350;17.056;2023-08-06T03:18:45;1.35;;;0.20;;
68432;SDS011;55412;51.350;17.056;2023-08-06T03:21:11;1.63;;;0.30;;
68432;SDS011;55412;51.350;17.056;2023-08-06T03:23:37;1.30;;;0.10;;
68432;SDS011;55412;51.350;17.056;2023-08-06T03:26:03;1.23;;;0.20;;
68432;SDS011;55412;51.350;17.056;2023-08-06T03:28:29;1.53;;;0.30;;
68432;SDS011;55412;51.350;17.056;2023-08-06T03:31:02;2.88;;;0.20;;
68432;SDS011;55412;51.350;17.056;2023-08-06T03:33:28;1.65;;;0.30;;
68432;SDS011;55412;51.350;17.056;2023-08-06T03:35:56;1.08;;;0.10;;
68432;SDS011;55412;51.350;17.056;2023-08-06T03:38:22;1.52;;;0.20;;
68432;SDS011;55412;51.350;17.056;2023-08-06T03:40:48;1.93;;;0.20;;
68432;SDS011;55412;51.350;17.056;2023-08-06T03:43:14;0.90;;;0.10;;
68432;SDS011;55412;51.350;17.056;2023-08-06T03:45:41;1.67;;;0.30;;
68432;SDS011;55412;51.350;17.056;2023-08-06T03:48:07;1.35;;;0.20;;
68432;SDS011;55412;51.350;17.056;2023-08-06T03:50:34;1.50;;;0.30;;
68432;SDS011;55412;51.350;17.056;2023-08-06T03:53:00;1.60;;;0.20;;
68432;SDS011;55412;51.350;17.056;2023-08-06T03:55:27;1.30;;;0.20;;
68432;SDS011;55412;51.350;17.056;2023-08-06T03:57:53;1.67;;;0.30;;
68432;SDS011;55412;51.350;17.056;2023-08-06T04:00:19;1.00;;;0.10;;
68432;SDS011;55412;51.350;17.056;2023-08-06T04:02:45;1.40;;;0.20;;
68432;SDS011;55412;51.350;17.056;2023-08-06T04:05:12;0.90;;;0.10;;
68432;SDS011;55412;51.350;17.056;2023-08-06T04:07:38;1.00;;;0.20;;
68432;SDS011;55412;51.350;17.056;2023-08-06T04:10:04;1.50;;;0.30;;
68432;SDS011;55412;51.350;17.056;2023-08-06T04:12:31;1.83;;;0.30;;
68432;SDS011;55412;51.350;17.056;2023-08-06T04:15:01;1.50;;;0.30;;
68432;SDS011;55412;51.350;17.056;2023-08-06T04:17:28;0.80;;;0.10;;
68432;SDS011;55412;51.350;17.056;2023-08-06T04:19:55;2.92;;;0.20;;
68432;SDS011;55412;51.350;17.056;2023-08-06T04:22:25;1.73;;;0.30;;
68432;SDS011;55412;51.350;17.056;2023-08-06T04:24:51;1.75;;;0.20;;
68432;SDS011;55412;51.350;17.056;2023-08-06T04:27:18;1.95;;;0.30;;
68432;SDS011;55412;51.350;17.056;2023-08-06T04:29:45;1.00;;;0.13;;
68432;SDS011;55412;51.350;17.056;2023-08-06T04:32:12;1.30;;;0.20;;
68432;SDS011;55412;51.350;17.056;2023-08-06T04:34:41;1.15;;;0.20;;
68432;SDS011;55412;51.350;17.056;2023-08-06T04:37:08;1.40;;;0.13;;
68432;SDS011;55412;51.350;17.056;2023-08-06T04:39:34;1.52;;;0.40;;
68432;SDS011;55412;51.350;17.056;2023-08-06T04:42:00;1.20;;;0.23;;
68432;SDS011;55412;51.350;17.056;2023-08-06T04:44:26;1.30;;;0.20;;
68432;SDS011;55412;51.350;17.056;2023-08-06T04:46:53;1.20;;;0.20;;
68432;SDS011;55412;51.350;17.056;2023-08-06T04:49:22;1.27;;;0.20;;
68432;SDS011;55412;51.350;17.056;2023-08-06T04:51:48;2.47;;;0.20;;
68432;SDS011;55412;51.350;17.056;2023-08-06T04:54:14;3.80;;;0.20;;
68432;SDS011;55412;51.350;17.056;2023-08-06T04:56:40;2.20;;;0.20;;
68432;SDS011;55412;51.350;17.056;2023-08-06T04:59:07;1.60;;;0.30;;
68432;SDS011;55412;51.350;17.056;2023-08-06T05:01:33;1.13;;;0.15;;
68432;SDS011;55412;51.350;17.056;2023-08-06T05:03:59;2.97;;;0.30;;
68432;SDS011;55412;51.350;17.056;2023-08-06T05:06:25;1.37;;;0.10;;
68432;SDS011;55412;51.350;17.056;2023-08-06T05:08:51;1.45;;;0.10;;
68432;SDS011;55412;51.350;17.056;2023-08-06T05:11:17;1.55;;;0.20;;
68432;SDS011;55412;51.350;17.056;2023-08-06T05:13:44;1.38;;;0.17;;
68432;SDS011;55412;51.350;17.056;2023-08-06T05:16:10;1.35;;;0.20;;
68432;SDS011;55412;51.350;17.056;2023-08-06T05:18:36;0.77;;;0.10;;
68432;SDS011;55412;51.350;17.056;2023-08-06T05:21:02;1.40;;;0.20;;
68432;SDS011;55412;51.350;17.056;2023-08-06T05:23:29;1.85;;;0.40;;
68432;SDS011;55412;51.350;17.056;2023-08-06T05:25:55;1.00;;;0.10;;
68432;SDS011;55412;51.350;17.056;2023-08-06T05:28:21;1.55;;;0.20;;
68432;SDS011;55412;51.350;17.056;2023-08-06T05:30:47;3.37;;;0.30;;
68432;SDS011;55412;51.350;17.056;2023-08-06T05:33:13;1.10;;;0.30;;
68432;SDS011;55412;51.350;17.056;2023-08-06T05:35:40;1.25;;;0.10;;
68432;SDS011;55412;51.350;17.056;2023-08-06T05:38:07;1.30;;;0.20;;
68432;SDS011;55412;51.350;17.056;2023-08-06T05:40:34;2.50;;;0.25;;
68432;SDS011;55412;51.350;17.056;2023-08-06T05:43:00;2.03;;;0.30;;
68432;SDS011;55412;51.350;17.056;2023-08-06T05:45:26;1.30;;;0.30;;
68432;SDS011;55412;51.350;17.056;2023-08-06T05:47:52;1.17;;;0.20;;
68432;SDS011;55412;51.350;17.056;2023-08-06T05:50:22;0.90;;;0.10;;
68432;SDS011;55412;51.350;17.056;2023-08-06T05:52:49;2.20;;;0.17;;
68432;SDS011;55412;51.350;17.056;2023-08-06T05:55:15;0.70;;;0.10;;
68432;SDS011;55412;51.350;17.056;2023-08-06T05:57:41;1.73;;;0.15;;
68432;SDS011;55412;51.350;17.056;2023-08-06T06:00:08;1.33;;;0.20;;
68432;SDS011;55412;51.350;17.056;2023-08-06T06:02:35;0.80;;;0.10;;
68432;SDS011;55412;51.350;17.056;2023-08-06T06:05:01;1.05;;;0.20;;
68432;SDS011;55412;51.350;17.056;2023-08-06T06:07:27;1.30;;;0.20;;
68432;SDS011;55412;51.350;17.056;2023-08-06T06:09:53;1.00;;;0.10;;
68432;SDS011;55412;51.350;17.056;2023-08-06T06:12:19;1.80;;;0.20;;
68432;SDS011;55412;51.350;17.056;2023-08-06T06:14:47;1.27;;;0.20;;
68432;SDS011;55412;51.350;17.056;2023-08-06T06:17:13;1.30;;;0.20;;
68432;SDS011;55412;51.350;17.056;2023-08-06T06:19:39;1.57;;;0.17;;
68432;SDS011;55412;51.350;17.056;2023-08-06T06:22:05;1.40;;;0.17;;
68432;SDS011;55412;51.350;17.056;2023-08-06T06:24:32;1.40;;;0.20;;
68432;SDS011;55412;51.350;17.056;2023-08-06T06:26:58;1.58;;;0.10;;
68432;SDS011;55412;51.350;17.056;2023-08-06T06:29:24;2.05;;;0.40;;
68432;SDS011;55412;51.350;17.056;2023-08-06T06:31:50;1.10;;;0.30;;
68432;SDS011;55412;51.350;17.056;2023-08-06T06:34:16;2.03;;;0.50;;
68432;SDS011;55412;51.350;17.056;2023-08-06T06:36:42;3.15;;;0.77;;
68432;SDS011;55412;51.350;17.056;2023-08-06T06:39:09;1.75;;;0.17;;
68432;SDS011;55412;51.350;17.056;2023-08-06T06:41:35;1.40;;;0.30;;
68432;SDS011;55412;51.350;17.056;2023-08-06T06:44:01;2.80;;;0.50;;
68432;SDS011;55412;51.350;17.056;2023-08-06T06:46:28;1.42;;;0.20;;
68432;SDS011;55412;51.350;17.056;2023-08-06T06:48:54;1.13;;;0.20;;
68432;SDS011;55412;51.350;17.056;2023-08-06T06:51:20;2.67;;;0.50;;
68432;SDS011;55412;51.350;17.056;2023-08-06T06:53:46;1.33;;;0.20;;
68432;SDS011;55412;51.350;17.056;2023-08-06T06:56:12;3.83;;;0.30;;
68432;SDS011;55412;51.350;17.056;2023-08-06T06:58:39;2.85;;;0.57;;
68432;SDS011;55412;51.350;17.056;2023-08-06T07:01:06;1.88;;;0.30;;
68432;SDS011;55412;51.350;17.056;2023-08-06T07:03:35;1.30;;;0.20;;
68432;SDS011;55412;51.350;17.056;2023-08-06T07:06:01;1.70;;;0.20;;
68432;SDS011;55412;51.350;17.056;2023-08-06T07:08:29;2.73;;;0.20;;
68432;SDS011;55412;51.350;17.056;2023-08-06T07:11:05;1.67;;;0.20;;
68432;SDS011;55412;51.350;17.056;2023-08-06T07:13:32;1.88;;;0.20;;
68432;SDS011;55412;51.350;17.056;2023-08-06T07:16:00;1.65;;;0.10;;
68432;SDS011;55412;51.350;17.056;2023-08-06T07:18:26;1.63;;;0.30;;
68432;SDS011;55412;51.350;17.056;2023-08-06T07:20:53;1.20;;;0.20;;
68432;SDS011;55412;51.350;17.056;2023-08-06T07:23:21;0.90;;;0.10;;
68432;SDS011;55412;51.350;17.056;2023-08-06T07:25:50;2.38;;;0.40;;
68432;SDS011;55412;51.350;17.056;2023-08-06T07:28:16;1.25;;;0.20;;
68432;SDS011;55412;51.350;17.056;2023-08-06T07:30:44;0.85;;;0.10;;
68432;SDS011;55412;51.350;17.056;2023-08-06T07:33:11;3.07;;;0.20;;
68432;SDS011;55412;51.350;17.056;2023-08-06T07:35:37;0.90;;;0.10;;
68432;SDS011;55412;51.350;17.056;2023-08-06T07:38:04;2.25;;;0.20;;
68432;SDS011;55412;51.350;17.056;2023-08-06T07:40:30;1.08;;;0.17;;
68432;SDS011;55412;51.350;17.056;2023-08-06T07:42:57;1.58;;;0.28;;
68432;SDS011;55412;51.350;17.056;2023-08-06T07:45:24;1.90;;;0.20;;
68432;SDS011;55412;51.350;17.056;2023-08-06T07:47:51;2.38;;;0.20;;
68432;SDS011;55412;51.350;17.056;2023-08-06T07:50:18;1.88;;;0.35;;
68432;SDS011;55412;51.350;17.056;2023-08-06T07:52:44;1.40;;;0.30;;
68432;SDS011;55412;51.350;17.056;2023-08-06T07:55:12;1.38;;;0.20;;
68432;SDS011;55412;51.350;17.056;2023-08-06T07:57:39;1.23;;;0.20;;
68432;SDS011;55412;51.350;17.056;2023-08-06T08:00:06;1.75;;;0.10;;
68432;SDS011;55412;51.350;17.056;2023-08-06T08:02:34;1.42;;;0.20;;
68432;SDS011;55412;51.350;17.056;2023-08-06T08:05:00;1.25;;;0.30;;
68432;SDS011;55412;51.350;17.056;2023-08-06T08:07:27;1.60;;;0.20;;
68432;SDS011;55412;51.350;17.056;2023-08-06T08:09:55;1.50;;;0.20;;
68432;SDS011;55412;51.350;17.056;2023-08-06T08:12:22;1.20;;;0.10;;
68432;SDS011;55412;51.350;17.056;2023-08-06T08:14:48;1.70;;;0.30;;
68432;SDS011;55412;51.350;17.056;2023-08-06T08:17:14;1.10;;;0.20;;
68432;SDS011;55412;51.350;17.056;2023-08-06T08:19:41;2.55;;;0.30;;
68432;SDS011;55412;51.350;17.056;2023-08-06T08:22:07;1.90;;;0.33;;
68432;SDS011;55412;51.350;17.056;2023-08-06T08:24:34;1.55;;;0.20;;
68432;SDS011;55412;51.350;17.056;2023-08-06T08:27:00;2.40;;;0.35;;
68432;SDS011;55412;51.350;17.056;2023-08-06T08:29:26;4.93;;;0.40;;
68432;SDS011;55412;51.350;17.056;2023-08-06T08:31:52;1.77;;;0.32;;
68432;SDS011;55412;51.350;17.056;2023-08-06T08:34:19;4.37;;;1.20;;
68432;SDS011;55412;51.350;17.056;2023-08-06T08:36:45;1.63;;;0.20;;
68432;SDS011;55412;51.350;17.056;2023-08-06T08:39:12;1.95;;;0.47;;
68432;SDS011;55412;51.350;17.056;2023-08-06T08:41:39;1.58;;;0.40;;
68432;SDS011;55412;51.350;17.056;2023-08-06T08:44:08;3.33;;;0.75;;
68432;SDS011;55412;51.350;17.056;2023-08-06T08:46:36;2.13;;;0.50;;
68432;SDS011;55412;51.350;17.056;2023-08-06T08:49:05;3.28;;;0.40;;
68432;SDS011;55412;51.350;17.056;2023-08-06T08:51:35;1.67;;;0.40;;
68432;SDS011;55412;51.350;17.056;2023-08-06T08:54:04;2.85;;;0.47;;
68432;SDS011;55412;51.350;17.056;2023-08-06T08:56:33;1.67;;;0.32;;
68432;SDS011;55412;51.350;17.056;2023-08-06T08:59:00;1.93;;;0.53;;
68432;SDS011;55412;51.350;17.056;2023-08-06T09:01:27;1.83;;;0.43;;
68432;SDS011;55412;51.350;17.056;2023-08-06T09:04:00;4.40;;;0.60;;
68432;SDS011;55412;51.350;17.056;2023-08-06T09:06:28;1.88;;;0.52;;
68432;SDS011;55412;51.350;17.056;2023-08-06T09:09:02;1.98;;;0.47;;
68432;SDS011;55412;51.350;17.056;2023-08-06T09:11:50;1.70;;;0.40;;
68432;SDS011;55412;51.350;17.056;2023-08-06T09:14:16;1.70;;;0.40;;
68432;SDS011;55412;51.350;17.056;2023-08-06T09:16:49;2.08;;;0.50;;
68432;SDS011;55412;51.350;17.056;2023-08-06T09:19:17;1.60;;;0.40;;
68432;SDS011;55412;51.350;17.056;2023-08-06T09:21:44;1.40;;;0.30;;
68432;SDS011;55412;51.350;17.056;2023-08-06T09:24:15;1.40;;;0.20;;
68432;SDS011;55412;51.350;17.056;2023-08-06T09:26:44;1.42;;;0.30;;
68432;SDS011;55412;51.350;17.056;2023-08-06T09:29:13;2.00;;;0.50;;
68432;SDS011;55412;51.350;17.056;2023-08-06T09:31:43;2.00;;;0.30;;
68432;SDS011;55412;51.350;17.056;2023-08-06T09:39:19;1.23;;;0.20;;
68432;SDS011;55412;51.350;17.056;2023-08-06T09:41:47;1.98;;;0.45;;
68432;SDS011;55412;51.350;17.056;2023-08-06T09:44:17;1.75;;;0.30;;
68432;SDS011;55412;51.350;17.056;2023-08-06T09:46:53;1.60;;;0.40;;
68432;SDS011;55412;51.350;17.056;2023-08-06T09:52:00;1.65;;;0.32;;
68432;SDS011;55412;51.350;17.056;2023-08-06T09:54:27;2.25;;;0.65;;
68432;SDS011;55412;51.350;17.056;2023-08-06T09:56:55;1.88;;;0.40;;
68432;SDS011;55412;51.350;17.056;2023-08-06T09:59:25;1.92;;;0.40;;
68432;SDS011;55412;51.350;17.056;2023-08-06T10:01:51;1.60;;;0.30;;
68432;SDS011;55412;51.350;17.056;2023-08-06T10:04:20;0.93;;;0.10;;
68432;SDS011;55412;51.350;17.056;2023-08-06T10:06:47;1.55;;;0.30;;
68432;SDS011;55412;51.350;17.056;2023-08-06T10:09:14;2.75;;;0.30;;
68432;SDS011;55412;51.350;17.056;2023-08-06T10:11:40;3.28;;;0.93;;
68432;SDS011;55412;51.350;17.056;2023-08-06T10:14:14;1.47;;;0.23;;
68432;SDS011;55412;51.350;17.056;2023-08-06T10:16:46;1.73;;;0.38;;
68432;SDS011;55412;51.350;17.056;2023-08-06T10:19:13;2.10;;;0.52;;
68432;SDS011;55412;51.350;17.056;2023-08-06T10:21:42;2.85;;;0.30;;
68432;SDS011;55412;51.350;17.056;2023-08-06T10:24:54;2.35;;;0.25;;
68432;SDS011;55412;51.350;17.056;2023-08-06T10:27:27;1.67;;;0.20;;
68432;SDS011;55412;51.350;17.056;2023-08-06T10:33:01;3.80;;;0.43;;
68432;SDS011;55412;51.350;17.056;2023-08-06T10:41:01;1.27;;;0.20;;
68432;SDS011;55412;51.350;17.056;2023-08-06T10:43:29;1.30;;;0.30;;
68432;SDS011;55412;51.350;17.056;2023-08-06T10:46:09;1.67;;;0.30;;
68432;SDS011;55412;51.350;17.056;2023-08-06T10:48:52;1.67;;;0.40;;
68432;SDS011;55412;51.350;17.056;2023-08-06T10:51:25;2.30;;;0.45;;
68432;SDS011;55412;51.350;17.056;2023-08-06T10:54:00;1.70;;;0.30;;
68432;SDS011;55412;51.350;17.056;2023-08-06T10:56:26;2.22;;;0.30;;
68432;SDS011;55412;51.350;17.056;2023-08-06T10:58:57;1.30;;;0.20;;
68432;SDS011;55412;51.350;17.056;2023-08-06T11:01:28;1.63;;;0.20;;
68432;SDS011;55412;51.350;17.056;2023-08-06T11:04:06;1.55;;;0.30;;
68432;SDS011;55412;51.350;17.056;2023-08-06T11:06:33;2.27;;;0.20;;
68432;SDS011;55412;51.350;17.056;2023-08-06T11:09:01;1.50;;;0.38;;
68432;SDS011;55412;51.350;17.056;2023-08-06T11:11:31;2.83;;;0.50;;
68432;SDS011;55412;51.350;17.056;2023-08-06T11:14:01;1.90;;;0.30;;
68432;SDS011;55412;51.350;17.056;2023-08-06T11:16:28;2.20;;;0.30;;
68432;SDS011;55412;51.350;17.056;2023-08-06T11:19:03;1.50;;;0.30;;
68432;SDS011;55412;51.350;17.056;2023-08-06T11:21:32;2.63;;;0.40;;
68432;SDS011;55412;51.350;17.056;2023-08-06T11:24:02;1.75;;;0.30;;
68432;SDS011;55412;51.350;17.056;2023-08-06T11:26:30;1.45;;;0.20;;
68432;SDS011;55412;51.350;17.056;2023-08-06T11:28:56;2.20;;;0.50;;
68432;SDS011;55412;51.350;17.056;2023-08-06T11:31:23;1.40;;;0.17;;
68432;SDS011;55412;51.350;17.056;2023-08-06T11:33:52;2.38;;;0.20;;
68432;SDS011;55412;51.350;17.056;2023-08-06T11:36:34;1.63;;;0.20;;
68432;SDS011;55412;51.350;17.056;2023-08-06T11:39:09;1.50;;;0.20;;
68432;SDS011;55412;51.350;17.056;2023-08-06T11:41:42;1.88;;;0.20;;
68432;SDS011;55412;51.350;17.056;2023-08-06T11:44:18;1.87;;;0.23;;
68432;SDS011;55412;51.350;17.056;2023-08-06T11:46:51;1.33;;;0.13;;
68432;SDS011;55412;51.350;17.056;2023-08-06T11:49:37;1.50;;;0.20;;
68432;SDS011;55412;51.350;17.056;2023-08-06T11:52:11;2.55;;;0.20;;
68432;SDS011;55412;51.350;17.056;2023-08-06T11:55:02;1.58;;;0.20;;
68432;SDS011;55412;51.350;17.056;2023-08-06T11:57:40;0.90;;;0.10;;
68432;SDS011;55412;51.350;17.056;2023-08-06T12:00:17;2.10;;;0.22;;
68432;SDS011;55412;51.350;17.056;2023-08-06T12:02:47;1.45;;;0.20;;
68432;SDS011;55412;51.350;17.056;2023-08-06T12:05:39;2.92;;;0.30;;
68432;SDS011;55412;51.350;17.056;2023-08-06T12:08:20;1.42;;;0.15;;
68432;SDS011;55412;51.350;17.056;2023-08-06T12:10:56;1.70;;;0.23;;
68432;SDS011;55412;51.350;17.056;2023-08-06T12:13:24;1.25;;;0.10;;
68432;SDS011;55412;51.350;17.056;2023-08-06T12:16:11;1.10;;;0.20;;
68432;SDS011;55412;51.350;17.056;2023-08-06T12:18:50;0.95;;;0.10;;
68432;SDS011;55412;51.350;17.056;2023-08-06T12:21:17;1.10;;;0.10;;
68432;SDS011;55412;51.350;17.056;2023-08-06T12:23:44;1.40;;;0.30;;
68432;SDS011;55412;51.350;17.056;2023-08-06T12:26:19;1.83;;;0.10;;
68432;SDS011;55412;51.350;17.056;2023-08-06T12:28:49;1.40;;;0.20;;
68432;SDS011;55412;51.350;17.056;2023-08-06T12:31:21;1.13;;;0.20;;
68432;SDS011;55412;51.350;17.056;2023-08-06T12:33:48;2.45;;;0.30;;
68432;SDS011;55412;51.350;17.056;2023-08-06T12:36:15;1.33;;;0.20;;
68432;SDS011;55412;51.350;17.056;2023-08-06T12:38:54;1.30;;;0.13;;
68432;SDS011;55412;51.350;17.056;2023-08-06T12:41:22;1.20;;;0.20;;
68432;SDS011;55412;51.350;17.056;2023-08-06T12:43:56;1.67;;;0.30;;
68432;SDS011;55412;51.350;17.056;2023-08-06T12:46:25;1.50;;;0.25;;
68432;SDS011;55412;51.350;17.056;2023-08-06T12:48:52;2.03;;;0.20;;
68432;SDS011;55412;51.350;17.056;2023-08-06T12:51:18;1.35;;;0.20;;
68432;SDS011;55412;51.350;17.056;2023-08-06T12:53:53;1.75;;;0.25;;
68432;SDS011;55412;51.350;17.056;2023-08-06T12:56:20;1.40;;;0.20;;
68432;SDS011;55412;51.350;17.056;2023-08-06T12:58:51;1.77;;;0.30;;
68432;SDS011;55412;51.350;17.056;2023-08-06T13:01:25;1.70;;;0.20;;
68432;SDS011;55412;51.350;17.056;2023-08-06T13:03:54;1.98;;;0.30;;
68432;SDS011;55412;51.350;17.056;2023-08-06T13:06:21;2.35;;;0.40;;
68432;SDS011;55412;51.350;17.056;2023-08-06T13:08:51;2.40;;;0.43;;
68432;SDS011;55412;51.350;17.056;2023-08-06T13:11:21;1.60;;;0.30;;
68432;SDS011;55412;51.350;17.056;2023-08-06T13:13:51;1.40;;;0.30;;
68432;SDS011;55412;51.350;17.056;2023-08-06T13:16:18;2.08;;;0.32;;
68432;SDS011;55412;51.350;17.056;2023-08-06T13:18:50;2.40;;;0.43;;
68432;SDS011;55412;51.350;17.056;2023-08-06T13:21:20;2.15;;;0.30;;
68432;SDS011;55412;51.350;17.056;2023-08-06T13:24:03;2.17;;;0.40;;
68432;SDS011;55412;51.350;17.056;2023-08-06T13:26:34;1.93;;;0.40;;
68432;SDS011;55412;51.350;17.056;2023-08-06T13:29:02;2.35;;;0.30;;
68432;SDS011;55412;51.350;17.056;2023-08-06T13:31:33;1.67;;;0.40;;
68432;SDS011;55412;51.350;17.056;2023-08-06T13:34:12;1.75;;;0.40;;
68432;SDS011;55412;51.350;17.056;2023-08-06T13:36:39;1.80;;;0.40;;
68432;SDS011;55412;51.350;17.056;2023-08-06T13:39:14;2.03;;;0.40;;
68432;SDS011;55412;51.350;17.056;2023-08-06T13:41:43;2.50;;;0.30;;
68432;SDS011;55412;51.350;17.056;2023-08-06T13:44:10;1.45;;;0.30;;
68432;SDS011;55412;51.350;17.056;2023-08-06T13:46:40;1.48;;;0.30;;
68432;SDS011;55412;51.350;17.056;2023-08-06T13:49:10;1.73;;;0.35;;
68432;SDS011;55412;51.350;17.056;2023-08-06T13:51:43;1.70;;;0.30;;
68432;SDS011;55412;51.350;17.056;2023-08-06T13:54:33;2.08;;;0.35;;
68432;SDS011;55412;51.350;17.056;2023-08-06T13:57:01;1.75;;;0.43;;
68432;SDS011;55412;51.350;17.056;2023-08-06T13:59:28;1.83;;;0.30;;
68432;SDS011;55412;51.350;17.056;2023-08-06T14:02:14;2.63;;;0.40;;
68432;SDS011;55412;51.350;17.056;2023-08-06T14:05:29;2.90;;;0.40;;
68432;SDS011;55412;51.350;17.056;2023-08-06T14:07:59;2.00;;;0.40;;
68432;SDS011;55412;51.350;17.056;2023-08-06T14:10:31;2.30;;;0.40;;
68432;SDS011;55412;51.350;17.056;2023-08-06T14:12:59;1.58;;;0.30;;
68432;SDS011;55412;51.350;17.056;2023-08-06T14:15:29;2.40;;;0.60;;
68432;SDS011;55412;51.350;17.056;2023-08-06T14:18:12;2.37;;;0.70;;
68432;SDS011;55412;51.350;17.056;2023-08-06T14:21:03;1.58;;;0.30;;
68432;SDS011;55412;51.350;17.056;2023-08-06T14:23:51;1.60;;;0.30;;
68432;SDS011;55412;51.350;17.056;2023-08-06T14:26:20;1.65;;;0.30;;
68432;SDS011;55412;51.350;17.056;2023-08-06T14:28:48;1.40;;;0.28;;
68432;SDS011;55412;51.350;17.056;2023-08-06T14:31:33;1.90;;;0.50;;
68432;SDS011;55412;51.350;17.056;2023-08-06T14:34:15;2.10;;;0.50;;
68432;SDS011;55412;51.350;17.056;2023-08-06T14:36:48;1.60;;;0.30;;
68432;SDS011;55412;51.350;17.056;2023-08-06T14:39:16;2.00;;;0.50;;
68432;SDS011;55412;51.350;17.056;2023-08-06T14:41:48;2.00;;;0.55;;
68432;SDS011;55412;51.350;17.056;2023-08-06T14:44:24;2.83;;;0.40;;
68432;SDS011;55412;51.350;17.056;2023-08-06T14:47:07;2.60;;;0.50;;
68432;SDS011;55412;51.350;17.056;2023-08-06T14:49:40;3.25;;;0.45;;
68432;SDS011;55412;51.350;17.056;2023-08-06T14:52:07;3.65;;;0.38;;
68432;SDS011;55412;51.350;17.056;2023-08-06T14:54:34;1.63;;;0.40;;
68432;SDS011;55412;51.350;17.056;2023-08-06T14:57:04;1.67;;;0.40;;
68432;SDS011;55412;51.350;17.056;2023-08-06T14:59:32;2.00;;;0.47;;
68432;SDS011;55412;51.350;17.056;2023-08-06T15:01:59;1.52;;;0.32;;
68432;SDS011;55412;51.350;17.056;2023-08-06T15:04:25;1.52;;;0.32;;